Time;durP1;ratioP1;P1;durP2;ratioP2;P2;SDS_P1;SDS_P2;PMS_P1;PMS_P2;Temp;Humidity;BMP_temperature;BMP_pressure;BME280_temperature;BME280_humidity;BME280_pressure;Samples;Min_cycle;Max_cycle;Signal;HPM_P1;HPM_P2
2023/12/06 00:00:24;;;;;;;2.67;2.10;;;;;;;;;;5066535;28;20036;-59
2023/12/06 00:02:49;;;;;;;3.55;2.03;;;;;;;;;;5066340;28;20028;-58
2023/12/06 00:05:15;;;;;;;3.67;2.20;;;;;;;;;;5067220;28;20098;-59
2023/12/06 00:07:40;;;;;;;3.50;2.28;;;;;;;;;;5065650;28;20128;-59
2023/12/06 00:10:06;;;;;;;3.13;2.33;;;;;;;;;;5048851;28;20041;-59
2023/12/06 00:12:31;;;;;;;3.55;2.15;;;;;;;;;;5065373;28;20048;-59
2023/12/06 00:14:56;;;;;;;2.70;1.98;;;;;;;;;;5049234;28;20536;-59
2023/12/06 00:17:22;;;;;;;3.03;2.25;;;;;;;;;;5066460;28;20412;-59
2023/12/06 00:19:47;;;;;;;3.30;2.30;;;;;;;;;;5066283;28;20032;-59
2023/12/06 00:22:12;;;;;;;3.05;2.00;;;;;;;;;;5048300;28;20039;-59
2023/12/06 00:24:38;;;;;;;2.30;1.75;;;;;;;;;;5047649;28;20048;-59
2023/12/06 00:27:03;;;;;;;2.80;2.15;;;;;;;;;;5066485;28;20119;-59
2023/12/06 00:29:28;;;;;;;2.85;2.10;;;;;;;;;;5044038;28;20122;-59
2023/12/06 00:31:54;;;;;;;3.38;2.28;;;;;;;;;;5053332;28;20506;-59
2023/12/06 00:34:19;;;;;;;2.95;2.05;;;;;;;;;;5044887;28;20147;-58
2023/12/06 00:36:44;;;;;;;3.33;2.10;;;;;;;;;;5053997;28;20098;-59
2023/12/06 00:39:13;;;;;;;2.88;2.10;;;;;;;;;;5071810;28;20119;-59
2023/12/06 00:41:39;;;;;;;3.53;2.10;;;;;;;;;;5067848;28;20218;-58
2023/12/06 00:44:04;;;;;;;2.80;2.10;;;;;;;;;;5068703;28;20147;-58
2023/12/06 00:46:29;;;;;;;3.03;2.17;;;;;;;;;;5065512;28;20037;-59
2023/12/06 00:48:55;;;;;;;2.58;1.98;;;;;;;;;;5066324;28;20040;-59
2023/12/06 00:51:20;;;;;;;3.05;2.00;;;;;;;;;;5065949;28;20786;-59
2023/12/06 00:53:46;;;;;;;2.92;2.08;;;;;;;;;;5048699;28;20051;-58
2023/12/06 00:56:12;;;;;;;3.03;1.90;;;;;;;;;;5065965;28;20583;-59
2023/12/06 00:58:37;;;;;;;3.05;2.10;;;;;;;;;;5046574;28;20044;-59
2023/12/06 01:01:03;;;;;;;3.38;2.00;;;;;;;;;;5065506;28;20037;-59
2023/12/06 01:03:28;;;;;;;2.95;2.08;;;;;;;;;;5065829;28;20138;-59
2023/12/06 01:05:54;;;;;;;2.90;1.80;;;;;;;;;;5065937;28;20553;-58
2023/12/06 01:08:19;;;;;;;2.55;1.83;;;;;;;;;;5065558;28;20036;-58
2023/12/06 01:10:44;;;;;;;2.97;1.80;;;;;;;;;;5065184;28;20032;-58
2023/12/06 01:13:10;;;;;;;2.63;2.10;;;;;;;;;;5065231;28;20086;-58
2023/12/06 01:15:35;;;;;;;3.20;2.10;;;;;;;;;;5063953;28;20036;-58
2023/12/06 01:18:00;;;;;;;2.88;1.67;;;;;;;;;;5047628;28;20170;-58
2023/12/06 01:20:26;;;;;;;3.33;2.28;;;;;;;;;;5065676;28;20044;-59
2023/12/06 01:22:51;;;;;;;2.60;1.70;;;;;;;;;;5064681;28;20551;-59
2023/12/06 01:25:16;;;;;;;3.22;2.05;;;;;;;;;;5047618;28;20040;-58
2023/12/06 01:27:41;;;;;;;2.90;2.13;;;;;;;;;;5064013;28;20877;-58
2023/12/06 01:30:07;;;;;;;3.08;2.08;;;;;;;;;;5065238;28;20094;-59
2023/12/06 01:32:32;;;;;;;2.60;1.90;;;;;;;;;;5045959;28;20111;-58
2023/12/06 01:34:58;;;;;;;3.22;2.20;;;;;;;;;;5064960;28;20064;-58
2023/12/06 01:37:23;;;;;;;2.40;1.90;;;;;;;;;;5064391;28;20501;-59
2023/12/06 01:39:48;;;;;;;2.53;1.90;;;;;;;;;;5065311;28;20603;-58
2023/12/06 01:42:13;;;;;;;3.10;2.10;;;;;;;;;;5061936;28;20037;-58
2023/12/06 01:44:39;;;;;;;3.28;2.10;;;;;;;;;;5063991;28;20051;-58
2023/12/06 01:47:04;;;;;;;2.63;1.88;;;;;;;;;;5046899;28;20556;-58
2023/12/06 01:49:30;;;;;;;2.72;1.95;;;;;;;;;;5026005;28;20124;-59
2023/12/06 01:51:55;;;;;;;3.28;2.10;;;;;;;;;;5057000;28;20162;-58
2023/12/06 01:54:21;;;;;;;2.40;2.00;;;;;;;;;;5046952;28;20045;-58
2023/12/06 01:56:46;;;;;;;2.70;1.90;;;;;;;;;;5064685;28;20090;-58
2023/12/06 01:59:11;;;;;;;2.33;1.67;;;;;;;;;;5047227;28;20040;-58
2023/12/06 02:01:37;;;;;;;3.22;2.10;;;;;;;;;;5065364;28;20056;-58
2023/12/06 02:04:02;;;;;;;3.03;2.30;;;;;;;;;;5046807;28;20528;-58
2023/12/06 02:06:27;;;;;;;2.53;1.83;;;;;;;;;;5045622;28;20036;-58
2023/12/06 02:08:52;;;;;;;2.90;1.85;;;;;;;;;;5063934;28;20036;-58
2023/12/06 02:11:18;;;;;;;2.97;2.15;;;;;;;;;;5046726;28;20747;-58
2023/12/06 02:13:43;;;;;;;2.90;1.92;;;;;;;;;;5046665;28;20135;-59
2023/12/06 02:16:08;;;;;;;2.95;2.10;;;;;;;;;;5046688;28;20052;-58
2023/12/06 02:18:34;;;;;;;2.85;1.83;;;;;;;;;;5064164;28;20792;-59
2023/12/06 02:20:59;;;;;;;3.30;1.90;;;;;;;;;;5063508;28;20037;-59
2023/12/06 02:23:25;;;;;;;3.10;2.10;;;;;;;;;;5062359;28;20129;-58
2023/12/06 02:25:50;;;;;;;2.75;1.90;;;;;;;;;;5064059;28;20418;-58
2023/12/06 02:28:15;;;;;;;2.78;2.00;;;;;;;;;;5064199;28;20041;-59
2023/12/06 02:30:41;;;;;;;2.90;1.92;;;;;;;;;;5045175;28;20501;-58
2023/12/06 02:33:06;;;;;;;2.85;2.13;;;;;;;;;;5064279;28;20040;-58
2023/12/06 02:35:35;;;;;;;2.80;1.98;;;;;;;;;;5064592;28;20040;-58
2023/12/06 02:38:01;;;;;;;2.80;2.00;;;;;;;;;;5046488;28;20433;-58
2023/12/06 02:40:27;;;;;;;3.00;2.08;;;;;;;;;;5061671;28;20037;-58
2023/12/06 02:42:52;;;;;;;3.28;2.30;;;;;;;;;;5063227;28;20046;-60
2023/12/06 02:45:17;;;;;;;2.78;2.00;;;;;;;;;;5063733;28;20040;-59
2023/12/06 02:47:43;;;;;;;2.92;2.10;;;;;;;;;;5063801;28;20024;-59
2023/12/06 02:50:08;;;;;;;2.83;2.08;;;;;;;;;;5063386;28;20024;-59
2023/12/06 02:52:33;;;;;;;2.63;1.90;;;;;;;;;;5064094;28;20013;-58
2023/12/06 02:54:58;;;;;;;2.92;1.90;;;;;;;;;;5064193;28;20397;-57
2023/12/06 02:57:24;;;;;;;3.17;2.15;;;;;;;;;;5036728;28;20021;-59
2023/12/06 02:59:49;;;;;;;2.72;2.10;;;;;;;;;;5044570;28;20024;-58
2023/12/06 03:02:14;;;;;;;2.80;2.03;;;;;;;;;;5063941;28;20047;-58
2023/12/06 03:04:40;;;;;;;2.97;2.10;;;;;;;;;;5063384;28;20037;-58
2023/12/06 03:07:05;;;;;;;2.60;1.80;;;;;;;;;;5064585;28;20086;-58
2023/12/06 03:09:30;;;;;;;2.60;1.80;;;;;;;;;;5063451;28;20028;-58
2023/12/06 03:11:56;;;;;;;2.53;1.80;;;;;;;;;;5046227;28;20492;-58
2023/12/06 03:14:21;;;;;;;2.72;1.90;;;;;;;;;;5033871;28;20040;-62
2023/12/06 03:16:47;;;;;;;3.13;1.85;;;;;;;;;;5064231;28;20024;-59
2023/12/06 03:19:12;;;;;;;3.25;2.17;;;;;;;;;;5063233;28;20024;-59
2023/12/06 03:21:37;;;;;;;2.83;1.77;;;;;;;;;;5063752;28;20028;-58
2023/12/06 03:24:03;;;;;;;2.67;1.90;;;;;;;;;;5045607;28;20462;-58
2023/12/06 03:26:28;;;;;;;2.90;2.10;;;;;;;;;;5063967;28;20494;-58
2023/12/06 03:28:53;;;;;;;2.50;1.80;;;;;;;;;;5061651;28;20105;-58
2023/12/06 03:31:19;;;;;;;2.53;1.85;;;;;;;;;;5062613;28;20571;-58
2023/12/06 03:33:44;;;;;;;2.35;1.90;;;;;;;;;;5046204;28;20063;-58
2023/12/06 03:36:10;;;;;;;2.80;2.10;;;;;;;;;;5063943;28;20024;-58
2023/12/06 03:38:35;;;;;;;2.45;1.67;;;;;;;;;;5062989;28;20028;-59
2023/12/06 03:41:00;;;;;;;3.65;2.25;;;;;;;;;;5058505;28;20482;-58
2023/12/06 03:43:26;;;;;;;2.53;1.65;;;;;;;;;;5062440;28;20107;-58
2023/12/06 03:45:51;;;;;;;2.90;2.10;;;;;;;;;;5063614;28;20016;-57
2023/12/06 03:48:16;;;;;;;3.85;2.00;;;;;;;;;;5039847;28;20574;-58
2023/12/06 03:50:42;;;;;;;2.45;1.98;;;;;;;;;;5063060;28;20028;-58
2023/12/06 03:53:08;;;;;;;2.15;1.90;;;;;;;;;;5066963;28;20031;-58
2023/12/06 03:55:34;;;;;;;2.67;1.73;;;;;;;;;;5048566;28;20100;-58
2023/12/06 03:57:59;;;;;;;2.40;1.70;;;;;;;;;;5065884;28;20094;-59
2023/12/06 04:00:24;;;;;;;3.05;1.90;;;;;;;;;;5065798;28;20070;-58
2023/12/06 04:02:50;;;;;;;2.80;1.90;;;;;;;;;;5064908;28;20024;-58
2023/12/06 04:05:15;;;;;;;2.67;1.80;;;;;;;;;;5065157;28;20099;-58
2023/12/06 04:07:40;;;;;;;2.88;1.88;;;;;;;;;;5048777;28;20147;-61
2023/12/06 04:10:06;;;;;;;2.72;1.90;;;;;;;;;;5067206;28;20017;-61
2023/12/06 04:12:31;;;;;;;2.70;1.90;;;;;;;;;;5067211;28;20027;-61
2023/12/06 04:14:56;;;;;;;2.88;1.80;;;;;;;;;;5065662;28;20020;-61
2023/12/06 04:17:22;;;;;;;3.40;1.90;;;;;;;;;;5066805;28;20456;-60
2023/12/06 04:19:47;;;;;;;2.30;1.65;;;;;;;;;;5065782;28;20071;-60
2023/12/06 04:22:12;;;;;;;2.25;1.60;;;;;;;;;;5048445;28;20100;-60
2023/12/06 04:24:37;;;;;;;2.95;1.80;;;;;;;;;;5066206;28;20036;-60
2023/12/06 04:27:03;;;;;;;2.20;1.50;;;;;;;;;;5066249;28;20526;-60
2023/12/06 04:29:29;;;;;;;2.38;1.70;;;;;;;;;;5066191;28;20521;-61
2023/12/06 04:31:54;;;;;;;2.13;1.50;;;;;;;;;;5067180;28;20085;-60
2023/12/06 04:34:19;;;;;;;2.33;1.80;;;;;;;;;;5066454;28;20040;-60
2023/12/06 04:36:44;;;;;;;2.15;1.50;;;;;;;;;;5066961;28;20393;-60
2023/12/06 04:39:10;;;;;;;2.22;1.60;;;;;;;;;;5047125;28;20599;-60
2023/12/06 04:41:35;;;;;;;2.38;1.67;;;;;;;;;;5064921;28;20119;-61
2023/12/06 04:44:00;;;;;;;2.40;1.50;;;;;;;;;;5066216;28;20032;-61
2023/12/06 04:46:27;;;;;;;2.40;1.50;;;;;;;;;;5066372;28;20544;-61
2023/12/06 04:48:52;;;;;;;2.00;1.50;;;;;;;;;;5066190;28;20036;-61
2023/12/06 04:51:18;;;;;;;2.17;1.40;;;;;;;;;;5066990;28;20111;-61
2023/12/06 04:53:43;;;;;;;2.15;1.50;;;;;;;;;;5066304;28;20029;-61
2023/12/06 04:56:08;;;;;;;1.88;1.40;;;;;;;;;;5065728;28;20098;-61
2023/12/06 04:58:34;;;;;;;2.13;1.48;;;;;;;;;;5031598;28;20033;-60
2023/12/06 05:00:59;;;;;;;2.13;1.70;;;;;;;;;;5043474;28;20039;-60
2023/12/06 05:03:25;;;;;;;2.20;1.45;;;;;;;;;;5057311;28;20457;-60
2023/12/06 05:05:50;;;;;;;2.25;1.65;;;;;;;;;;5066211;28;20036;-61
2023/12/06 05:08:15;;;;;;;1.95;1.33;;;;;;;;;;5047019;28;20063;-60
2023/12/06 05:10:41;;;;;;;1.80;1.40;;;;;;;;;;5062013;28;20056;-60
2023/12/06 05:13:06;;;;;;;2.17;1.38;;;;;;;;;;5064052;28;20709;-60
2023/12/06 05:15:32;;;;;;;2.65;1.80;;;;;;;;;;5064216;28;20051;-60
2023/12/06 05:17:57;;;;;;;1.88;1.30;;;;;;;;;;5065138;28;20040;-60
2023/12/06 05:20:22;;;;;;;2.08;1.40;;;;;;;;;;5064326;28;20065;-60
2023/12/06 05:22:48;;;;;;;2.10;1.48;;;;;;;;;;5050946;28;20109;-60
2023/12/06 05:25:13;;;;;;;2.03;1.45;;;;;;;;;;5065022;28;20040;-60
2023/12/06 05:27:38;;;;;;;2.05;1.50;;;;;;;;;;5064013;28;20792;-61
2023/12/06 05:30:04;;;;;;;1.73;1.45;;;;;;;;;;5051006;28;20029;-60
2023/12/06 05:32:29;;;;;;;2.42;1.60;;;;;;;;;;5063400;28;20041;-60
2023/12/06 05:34:55;;;;;;;1.80;1.30;;;;;;;;;;5052329;28;20105;-60
2023/12/06 05:37:20;;;;;;;2.33;1.67;;;;;;;;;;5065218;28;20047;-60
2023/12/06 05:39:45;;;;;;;1.95;1.58;;;;;;;;;;5060853;28;20134;-60
2023/12/06 05:42:11;;;;;;;1.73;1.30;;;;;;;;;;5057860;28;20033;-61
2023/12/06 05:44:36;;;;;;;1.75;1.20;;;;;;;;;;5061300;28;20044;-61
2023/12/06 05:47:02;;;;;;;1.95;1.40;;;;;;;;;;5063400;28;21313;-61
2023/12/06 05:49:27;;;;;;;2.85;1.63;;;;;;;;;;5044184;28;20036;-61
2023/12/06 05:51:52;;;;;;;2.15;1.38;;;;;;;;;;5056533;28;20047;-58
2023/12/06 05:54:18;;;;;;;2.35;1.40;;;;;;;;;;5062472;28;20541;-61
2023/12/06 05:56:43;;;;;;;4.38;1.30;;;;;;;;;;5045030;28;20119;-61
2023/12/06 05:59:08;;;;;;;2.00;1.40;;;;;;;;;;5041217;28;20931;-60
2023/12/06 06:01:34;;;;;;;1.95;1.40;;;;;;;;;;5041137;28;20045;-61
2023/12/06 06:03:59;;;;;;;1.38;1.20;;;;;;;;;;5047345;28;20102;-61
2023/12/06 06:06:25;;;;;;;1.92;1.33;;;;;;;;;;5050764;28;20051;-61
2023/12/06 06:08:50;;;;;;;1.75;1.27;;;;;;;;;;5023776;28;20559;-62
2023/12/06 06:11:16;;;;;;;2.53;1.25;;;;;;;;;;5061439;28;20033;-61
2023/12/06 06:13:41;;;;;;;3.17;1.40;;;;;;;;;;5020624;28;20048;-60
2023/12/06 06:16:07;;;;;;;2.55;1.42;;;;;;;;;;5055678;28;20579;-60
2023/12/06 06:18:32;;;;;;;1.95;1.42;;;;;;;;;;5043281;28;20164;-60
2023/12/06 06:20:58;;;;;;;1.98;1.13;;;;;;;;;;5058577;28;20909;-60
2023/12/06 06:23:24;;;;;;;1.63;1.20;;;;;;;;;;5042076;28;20040;-61
2023/12/06 06:25:49;;;;;;;1.90;1.13;;;;;;;;;;5062259;28;20040;-61
2023/12/06 06:28:15;;;;;;;2.20;1.55;;;;;;;;;;5059874;28;20031;-61
2023/12/06 06:30:40;;;;;;;2.15;1.35;;;;;;;;;;5040658;28;20117;-61
2023/12/06 06:33:05;;;;;;;1.58;1.33;;;;;;;;;;5043818;28;20060;-61
2023/12/06 06:35:31;;;;;;;2.17;1.40;;;;;;;;;;5057717;28;20049;-61
2023/12/06 06:37:56;;;;;;;1.88;1.13;;;;;;;;;;5058967;28;20217;-60
2023/12/06 06:40:22;;;;;;;2.47;1.40;;;;;;;;;;5026269;28;20108;-60
2023/12/06 06:42:48;;;;;;;2.38;1.33;;;;;;;;;;5058536;28;20025;-60
2023/12/06 06:45:13;;;;;;;2.13;1.23;;;;;;;;;;5053252;28;20056;-61
2023/12/06 06:47:38;;;;;;;1.98;1.30;;;;;;;;;;5043392;28;20083;-61
2023/12/06 06:50:04;;;;;;;1.65;1.20;;;;;;;;;;5060110;28;20426;-61
2023/12/06 06:52:30;;;;;;;2.00;1.48;;;;;;;;;;5054976;28;21092;-62
2023/12/06 06:54:56;;;;;;;1.80;1.27;;;;;;;;;;5044163;28;20032;-61
2023/12/06 06:57:21;;;;;;;2.42;1.10;;;;;;;;;;5038857;28;20033;-61
2023/12/06 06:59:47;;;;;;;2.80;1.23;;;;;;;;;;5042148;28;20086;-59
2023/12/06 07:02:12;;;;;;;2.28;1.30;;;;;;;;;;5061912;28;20032;-59
2023/12/06 07:04:37;;;;;;;1.30;1.00;;;;;;;;;;5052335;28;20067;-59
2023/12/06 07:07:03;;;;;;;2.13;1.20;;;;;;;;;;5038279;28;20036;-60
2023/12/06 07:09:28;;;;;;;1.63;1.05;;;;;;;;;;5043169;28;20041;-59
2023/12/06 07:11:53;;;;;;;2.22;1.38;;;;;;;;;;5041368;28;20115;-59
2023/12/06 07:14:20;;;;;;;2.13;1.20;;;;;;;;;;5051398;28;20051;-59
2023/12/06 07:16:46;;;;;;;2.47;1.20;;;;;;;;;;5037168;28;20091;-59
2023/12/06 07:19:12;;;;;;;1.80;1.20;;;;;;;;;;5038677;28;20041;-59
2023/12/06 07:21:38;;;;;;;1.98;1.30;;;;;;;;;;5056809;28;20037;-59
2023/12/06 07:24:03;;;;;;;2.05;1.42;;;;;;;;;;5041117;28;20436;-60
2023/12/06 07:26:28;;;;;;;2.00;1.20;;;;;;;;;;5058778;28;20140;-59
2023/12/06 07:28:54;;;;;;;3.05;1.30;;;;;;;;;;5057129;28;20499;-61
2023/12/06 07:31:20;;;;;;;1.75;1.20;;;;;;;;;;5037189;28;20100;-59
2023/12/06 07:33:47;;;;;;;2.05;1.23;;;;;;;;;;5036078;28;20091;-57
2023/12/06 07:36:13;;;;;;;2.10;1.30;;;;;;;;;;5044408;28;20049;-60
2023/12/06 07:38:39;;;;;;;2.65;1.70;;;;;;;;;;5039408;28;20036;-59
2023/12/06 07:41:04;;;;;;;2.15;1.20;;;;;;;;;;5039776;28;20055;-59
2023/12/06 07:43:30;;;;;;;2.50;1.08;;;;;;;;;;5044689;28;20462;-59
2023/12/06 07:45:55;;;;;;;2.97;1.20;;;;;;;;;;5035545;28;20068;-59
2023/12/06 07:48:21;;;;;;;2.63;0.90;;;;;;;;;;5044379;28;20045;-58
2023/12/06 07:50:47;;;;;;;1.83;1.10;;;;;;;;;;5024187;28;20028;-58
2023/12/06 07:53:12;;;;;;;2.28;1.08;;;;;;;;;;5063328;28;20047;-59
2023/12/06 07:55:39;;;;;;;2.25;1.30;;;;;;;;;;5043545;28;20483;-57
2023/12/06 07:58:04;;;;;;;2.30;1.00;;;;;;;;;;5045431;28;20068;-56
2023/12/06 08:00:30;;;;;;;2.65;1.23;;;;;;;;;;5041676;28;20063;-57
2023/12/06 08:02:55;;;;;;;1.60;0.98;;;;;;;;;;5041971;28;20036;-57
2023/12/06 08:05:20;;;;;;;2.25;1.35;;;;;;;;;;5054946;28;20080;-57
2023/12/06 08:07:46;;;;;;;2.15;1.33;;;;;;;;;;5041019;28;20494;-57
2023/12/06 08:10:19;;;;;;;3.33;1.20;;;;;;;;;;5059882;28;20075;-57
2023/12/06 08:12:44;;;;;;;1.90;1.20;;;;;;;;;;5056819;28;20584;-57
2023/12/06 08:15:10;;;;;;;1.95;1.42;;;;;;;;;;5043671;28;20049;-57
2023/12/06 08:17:35;;;;;;;2.13;1.42;;;;;;;;;;5022637;28;20041;-57
2023/12/06 08:20:00;;;;;;;2.65;1.15;;;;;;;;;;5024422;28;20442;-57
2023/12/06 08:22:26;;;;;;;1.90;1.17;;;;;;;;;;5058657;28;20063;-57
2023/12/06 08:24:56;;;;;;;2.03;1.30;;;;;;;;;;5043099;28;20040;-57
2023/12/06 08:27:23;;;;;;;2.25;1.00;;;;;;;;;;5058510;28;20127;-57
2023/12/06 08:29:49;;;;;;;2.28;1.38;;;;;;;;;;5054355;28;20041;-57
2023/12/06 08:32:14;;;;;;;1.58;1.20;;;;;;;;;;5052335;28;20097;-57
2023/12/06 08:34:39;;;;;;;1.95;1.20;;;;;;;;;;5017594;28;20108;-58
2023/12/06 08:37:05;;;;;;;1.85;1.23;;;;;;;;;;5057166;28;20410;-58
2023/12/06 08:39:30;;;;;;;1.75;1.20;;;;;;;;;;5042097;28;20102;-57
2023/12/06 08:41:56;;;;;;;1.73;1.00;;;;;;;;;;5051594;28;20039;-58
2023/12/06 08:44:21;;;;;;;1.88;1.25;;;;;;;;;;5039676;28;20052;-58
2023/12/06 08:46:46;;;;;;;2.25;1.40;;;;;;;;;;5042223;28;20047;-56
2023/12/06 08:49:13;;;;;;;2.45;1.30;;;;;;;;;;5054967;28;20037;-59
2023/12/06 08:51:39;;;;;;;1.80;1.15;;;;;;;;;;5042619;28;20065;-57
2023/12/06 08:54:04;;;;;;;2.20;1.40;;;;;;;;;;5040302;28;20056;-57
2023/12/06 08:56:29;;;;;;;2.20;1.27;;;;;;;;;;5045316;28;20522;-58
2023/12/06 08:58:55;;;;;;;2.35;1.50;;;;;;;;;;5055340;28;20173;-57
2023/12/06 09:01:20;;;;;;;2.80;1.40;;;;;;;;;;5055493;28;20159;-58
2023/12/06 09:03:45;;;;;;;1.73;1.20;;;;;;;;;;5064927;28;20057;-58
2023/12/06 09:06:11;;;;;;;1.63;1.20;;;;;;;;;;5065862;28;20434;-58
2023/12/06 09:08:36;;;;;;;1.75;1.30;;;;;;;;;;5047585;28;20040;-59
2023/12/06 09:11:02;;;;;;;1.92;1.15;;;;;;;;;;5064799;28;20029;-58
2023/12/06 09:13:27;;;;;;;2.38;1.23;;;;;;;;;;5064732;28;20526;-58
2023/12/06 09:15:52;;;;;;;2.08;1.25;;;;;;;;;;5066098;28;20519;-58
2023/12/06 09:18:18;;;;;;;2.75;1.58;;;;;;;;;;5065337;28;20041;-58
2023/12/06 09:20:43;;;;;;;1.90;1.20;;;;;;;;;;5065152;28;20045;-58
2023/12/06 09:23:09;;;;;;;2.05;1.20;;;;;;;;;;5047101;28;20572;-58
2023/12/06 09:25:34;;;;;;;2.30;1.20;;;;;;;;;;5065693;28;20053;-58
2023/12/06 09:28:00;;;;;;;2.55;1.45;;;;;;;;;;5064121;28;20048;-58
2023/12/06 09:30:25;;;;;;;1.98;1.27;;;;;;;;;;5063324;28;20037;-58
2023/12/06 09:32:51;;;;;;;2.15;1.30;;;;;;;;;;5064516;28;20037;-58
2023/12/06 09:35:16;;;;;;;1.95;1.40;;;;;;;;;;5065452;28;20530;-58
2023/12/06 09:37:43;;;;;;;2.70;1.30;;;;;;;;;;5046503;28;20047;-58
2023/12/06 09:40:08;;;;;;;1.80;1.27;;;;;;;;;;5046983;28;20040;-61
2023/12/06 09:42:34;;;;;;;2.55;1.27;;;;;;;;;;5063063;28;20557;-59
2023/12/06 09:45:01;;;;;;;1.70;1.10;;;;;;;;;;5044658;28;20120;-59
2023/12/06 09:47:26;;;;;;;1.88;1.20;;;;;;;;;;5046427;28;20055;-59
2023/12/06 09:49:51;;;;;;;2.03;1.20;;;;;;;;;;5064568;28;20037;-58
2023/12/06 09:52:23;;;;;;;2.00;1.30;;;;;;;;;;5064587;28;20717;-58
2023/12/06 09:54:48;;;;;;;1.90;1.20;;;;;;;;;;5029721;28;20033;-58
2023/12/06 09:57:14;;;;;;;2.03;1.33;;;;;;;;;;5042090;28;20522;-58
2023/12/06 09:59:40;;;;;;;2.53;1.52;;;;;;;;;;5065259;28;20056;-58
2023/12/06 10:02:05;;;;;;;2.38;1.30;;;;;;;;;;5061753;28;20050;-58
2023/12/06 10:04:30;;;;;;;2.60;1.40;;;;;;;;;;5019981;28;20041;-58
2023/12/06 10:06:57;;;;;;;2.90;1.35;;;;;;;;;;5055624;28;20044;-58
2023/12/06 10:09:22;;;;;;;2.15;1.23;;;;;;;;;;5051704;28;20039;-58
2023/12/06 10:11:47;;;;;;;2.22;1.40;;;;;;;;;;5053217;28;20458;-57
2023/12/06 10:14:19;;;;;;;2.40;1.48;;;;;;;;;;5053639;28;20482;-58
2023/12/06 10:16:45;;;;;;;2.90;1.80;;;;;;;;;;5051777;28;20036;-59
2023/12/06 10:19:10;;;;;;;2.30;1.50;;;;;;;;;;5055677;28;20467;-59
2023/12/06 10:21:36;;;;;;;1.98;1.33;;;;;;;;;;5039432;28;20041;-58
2023/12/06 10:24:01;;;;;;;2.00;1.20;;;;;;;;;;5038974;28;20052;-59
2023/12/06 10:26:30;;;;;;;1.73;1.23;;;;;;;;;;5038484;28;20037;-58
2023/12/06 10:28:55;;;;;;;2.10;1.52;;;;;;;;;;5049738;28;20093;-59
2023/12/06 10:31:20;;;;;;;1.92;1.33;;;;;;;;;;5036776;28;20032;-58
2023/12/06 10:33:46;;;;;;;2.53;1.30;;;;;;;;;;5035961;28;20060;-60
2023/12/06 10:36:11;;;;;;;2.67;1.35;;;;;;;;;;5053765;28;20032;-59
2023/12/06 10:38:37;;;;;;;1.73;1.10;;;;;;;;;;5051025;28;20032;-58
2023/12/06 10:41:03;;;;;;;1.80;1.30;;;;;;;;;;5021794;28;20052;-58
2023/12/06 10:43:28;;;;;;;2.63;1.23;;;;;;;;;;5052149;28;20301;-59
2023/12/06 10:45:54;;;;;;;1.77;1.30;;;;;;;;;;5037335;28;20029;-59
2023/12/06 10:48:20;;;;;;;2.22;1.48;;;;;;;;;;5032563;28;20126;-59
2023/12/06 10:50:45;;;;;;;2.08;1.38;;;;;;;;;;5049798;28;20037;-59
2023/12/06 10:53:14;;;;;;;2.88;1.17;;;;;;;;;;5033292;28;20024;-59
2023/12/06 10:55:40;;;;;;;2.30;1.40;;;;;;;;;;5032354;28;21936;-60
2023/12/06 10:58:06;;;;;;;2.70;1.40;;;;;;;;;;5020623;28;20040;-59
2023/12/06 11:00:31;;;;;;;1.52;1.08;;;;;;;;;;5051008;28;20029;-59
2023/12/06 11:02:57;;;;;;;2.13;1.42;;;;;;;;;;5024601;28;20411;-56
2023/12/06 11:05:24;;;;;;;2.30;1.40;;;;;;;;;;5040056;28;20041;-59
2023/12/06 11:07:55;;;;;;;2.35;1.35;;;;;;;;;;5041876;28;20032;-59
2023/12/06 11:10:21;;;;;;;1.77;1.20;;;;;;;;;;5055336;28;20127;-58
2023/12/06 11:12:58;;;;;;;2.80;1.58;;;;;;;;;;5055536;28;20127;-59
2023/12/06 11:15:42;;;;;;;1.83;1.23;;;;;;;;;;5022955;28;20055;-60
2023/12/06 11:18:33;;;;;;;2.53;1.42;;;;;;;;;;5055605;28;20727;-59
2023/12/06 11:20:59;;;;;;;2.83;1.35;;;;;;;;;;5049275;28;20037;-58
2023/12/06 11:23:24;;;;;;;2.67;1.30;;;;;;;;;;5053483;28;21241;-59
2023/12/06 11:25:49;;;;;;;1.70;1.15;;;;;;;;;;5054007;28;20075;-59
2023/12/06 11:28:17;;;;;;;1.77;1.40;;;;;;;;;;5054408;28;20029;-59
2023/12/06 11:30:48;;;;;;;1.63;1.20;;;;;;;;;;5055250;28;20048;-59
2023/12/06 11:33:13;;;;;;;3.45;1.33;;;;;;;;;;5036551;28;20129;-58
2023/12/06 11:36:05;;;;;;;2.85;1.27;;;;;;;;;;5056497;28;20115;-58
2023/12/06 11:38:33;;;;;;;2.42;1.30;;;;;;;;;;5052682;28;20037;-57
2023/12/06 11:40:59;;;;;;;2.15;1.10;;;;;;;;;;5057257;28;20093;-58
2023/12/06 11:43:31;;;;;;;1.98;1.27;;;;;;;;;;5038188;28;20510;-58
2023/12/06 11:46:03;;;;;;;1.77;1.20;;;;;;;;;;5052672;28;20052;-57
2023/12/06 11:48:28;;;;;;;2.10;1.20;;;;;;;;;;5036412;28;20040;-59
2023/12/06 11:50:55;;;;;;;2.75;1.55;;;;;;;;;;5037476;28;20055;-59
2023/12/06 11:53:21;;;;;;;2.05;1.00;;;;;;;;;;5025365;28;20044;-59
2023/12/06 11:55:47;;;;;;;1.85;1.13;;;;;;;;;;5054649;28;20063;-60
2023/12/06 11:58:13;;;;;;;1.50;1.10;;;;;;;;;;5041736;28;20048;-61
2023/12/06 12:00:39;;;;;;;2.40;1.30;;;;;;;;;;5039314;28;20052;-60
2023/12/06 12:03:04;;;;;;;1.67;1.10;;;;;;;;;;5043414;28;20052;-58
2023/12/06 12:05:30;;;;;;;2.45;1.23;;;;;;;;;;5041982;28;20501;-58
2023/12/06 12:07:56;;;;;;;2.17;1.25;;;;;;;;;;5037301;28;20048;-58
2023/12/06 12:10:21;;;;;;;1.50;1.00;;;;;;;;;;5047988;28;20040;-59
2023/12/06 12:12:49;;;;;;;2.33;1.05;;;;;;;;;;5064527;28;20567;-59
2023/12/06 12:15:16;;;;;;;1.95;1.35;;;;;;;;;;5047522;28;20095;-59
2023/12/06 12:17:42;;;;;;;1.92;1.17;;;;;;;;;;5059752;28;20040;-59
2023/12/06 12:20:08;;;;;;;2.13;1.15;;;;;;;;;;5040353;28;20045;-59
2023/12/06 12:22:43;;;;;;;1.83;1.10;;;;;;;;;;5046825;28;20059;-60
2023/12/06 12:25:09;;;;;;;2.60;1.10;;;;;;;;;;5044501;28;20619;-59
2023/12/06 12:27:34;;;;;;;1.75;1.00;;;;;;;;;;5047780;28;20040;-59
2023/12/06 12:29:59;;;;;;;1.80;1.25;;;;;;;;;;5030802;28;20040;-61
2023/12/06 12:32:27;;;;;;;1.83;1.10;;;;;;;;;;5046075;28;20094;-59
2023/12/06 12:34:52;;;;;;;1.92;1.25;;;;;;;;;;5022312;28;20491;-60
2023/12/06 12:37:17;;;;;;;3.38;1.30;;;;;;;;;;5044805;28;20059;-60
2023/12/06 12:39:43;;;;;;;2.95;1.45;;;;;;;;;;5025003;28;20072;-59
2023/12/06 12:42:08;;;;;;;3.50;1.40;;;;;;;;;;5018620;28;20112;-61
2023/12/06 12:44:34;;;;;;;2.30;1.10;;;;;;;;;;5022766;28;20091;-61
2023/12/06 12:46:59;;;;;;;2.08;1.10;;;;;;;;;;5040065;28;20114;-61
2023/12/06 12:49:25;;;;;;;2.63;1.10;;;;;;;;;;5022685;28;20087;-62
2023/12/06 12:51:50;;;;;;;2.97;1.20;;;;;;;;;;5040267;28;20037;-61
2023/12/06 12:54:16;;;;;;;3.75;1.23;;;;;;;;;;5020860;28;20040;-70
2023/12/06 12:56:42;;;;;;;1.88;0.98;;;;;;;;;;5040349;28;20045;-60
2023/12/06 12:59:07;;;;;;;2.20;1.08;;;;;;;;;;5033017;28;20048;-60
2023/12/06 13:01:34;;;;;;;1.58;1.13;;;;;;;;;;5039170;28;20548;-62
2023/12/06 13:04:00;;;;;;;2.53;1.17;;;;;;;;;;5036241;28;20119;-62
2023/12/06 13:06:25;;;;;;;3.80;1.20;;;;;;;;;;5053913;28;20146;-60
2023/12/06 13:08:53;;;;;;;1.48;0.98;;;;;;;;;;5036773;28;20055;-60
2023/12/06 13:11:19;;;;;;;1.85;1.05;;;;;;;;;;5035018;28;20128;-61
2023/12/06 13:13:44;;;;;;;1.63;0.98;;;;;;;;;;5037774;28;20200;-61
2023/12/06 13:16:09;;;;;;;1.90;1.00;;;;;;;;;;5027694;28;20040;-60
2023/12/06 13:18:37;;;;;;;1.90;1.00;;;;;;;;;;5040165;28;20021;-61
2023/12/06 13:21:03;;;;;;;2.33;1.13;;;;;;;;;;5048398;28;20016;-61
2023/12/06 13:23:29;;;;;;;2.10;1.10;;;;;;;;;;5046680;28;20681;-61
2023/12/06 13:25:54;;;;;;;2.03;1.20;;;;;;;;;;5063339;28;20036;-61
2023/12/06 13:28:19;;;;;;;2.38;0.98;;;;;;;;;;5065436;28;20025;-60
2023/12/06 13:30:45;;;;;;;4.13;1.40;;;;;;;;;;5018525;28;20134;-60
2023/12/06 13:33:10;;;;;;;1.52;0.90;;;;;;;;;;5065806;28;20135;-60
2023/12/06 13:35:36;;;;;;;1.58;1.08;;;;;;;;;;5066444;28;20101;-60
2023/12/06 13:38:02;;;;;;;1.90;1.05;;;;;;;;;;5066115;28;20508;-61
2023/12/06 13:40:28;;;;;;;2.20;1.02;;;;;;;;;;5064033;28;20474;-60
2023/12/06 13:42:53;;;;;;;1.17;0.88;;;;;;;;;;5042985;28;20531;-60
2023/12/06 13:45:18;;;;;;;2.15;1.20;;;;;;;;;;5064829;28;20052;-60
2023/12/06 13:47:44;;;;;;;1.60;1.00;;;;;;;;;;5065656;28;20028;-60
2023/12/06 13:50:09;;;;;;;1.88;1.05;;;;;;;;;;5029958;28;20125;-60
2023/12/06 13:52:35;;;;;;;2.33;0.90;;;;;;;;;;5037949;28;20025;-61
2023/12/06 13:55:02;;;;;;;2.03;1.30;;;;;;;;;;5040427;28;20031;-61
2023/12/06 13:57:30;;;;;;;2.10;1.10;;;;;;;;;;5051744;28;20033;-60
2023/12/06 13:59:55;;;;;;;2.47;1.20;;;;;;;;;;5053768;28;20410;-60
2023/12/06 14:02:20;;;;;;;1.65;1.08;;;;;;;;;;5053464;28;20043;-59
2023/12/06 14:04:46;;;;;;;2.20;1.00;;;;;;;;;;5058121;28;20048;-60
2023/12/06 14:07:11;;;;;;;1.83;0.95;;;;;;;;;;5059830;28;20560;-60
2023/12/06 14:09:37;;;;;;;1.67;1.00;;;;;;;;;;5062900;28;20028;-61
2023/12/06 14:12:02;;;;;;;1.98;1.13;;;;;;;;;;5065435;28;20506;-61
2023/12/06 14:14:27;;;;;;;1.40;0.90;;;;;;;;;;5065360;28;20239;-61
2023/12/06 14:16:53;;;;;;;2.40;1.30;;;;;;;;;;5064289;28;20067;-61
2023/12/06 14:19:18;;;;;;;1.48;0.77;;;;;;;;;;5063605;28;20857;-61
2023/12/06 14:21:43;;;;;;;1.77;1.00;;;;;;;;;;5064557;28;20033;-61
2023/12/06 14:24:09;;;;;;;2.15;1.10;;;;;;;;;;5064827;28;20536;-60
2023/12/06 14:26:34;;;;;;;3.50;1.20;;;;;;;;;;5064610;28;20099;-61
2023/12/06 14:28:59;;;;;;;1.85;1.20;;;;;;;;;;5065701;28;20033;-62
2023/12/06 14:31:25;;;;;;;2.15;1.20;;;;;;;;;;5047093;28;20032;-61
2023/12/06 14:33:50;;;;;;;1.80;1.02;;;;;;;;;;5063805;28;20043;-61